sensor_id;sensor_type;location;lat;lon;timestamp;P1;durP1;ratioP1;P2;durP2;ratioP2
63193;SDS011;49289;51.670;5.624;2023-05-16T00:01:23;8.70;;;2.20;;
63193;SDS011;49289;51.670;5.624;2023-05-16T00:03:10;6.60;;;1.80;;
63193;SDS011;49289;51.670;5.624;2023-05-16T00:04:57;7.80;;;1.90;;
63193;SDS011;49289;51.670;5.624;2023-05-16T00:06:44;8.60;;;2.40;;
63193;SDS011;49289;51.670;5.624;2023-05-16T00:08:31;6.30;;;1.70;;
63193;SDS011;49289;51.670;5.624;2023-05-16T00:10:18;6.90;;;1.90;;
63193;SDS011;49289;51.670;5.624;2023-05-16T00:12:07;6.10;;;2.00;;
63193;SDS011;49289;51.670;5.624;2023-05-16T00:13:54;8.20;;;2.00;;
63193;SDS011;49289;51.670;5.624;2023-05-16T00:15:41;8.40;;;2.40;;
63193;SDS011;49289;51.670;5.624;2023-05-16T00:17:28;8.20;;;2.20;;
63193;SDS011;49289;51.670;5.624;2023-05-16T00:19:15;9.20;;;2.50;;
63193;SDS011;49289;51.670;5.624;2023-05-16T00:21:03;7.00;;;2.10;;
63193;SDS011;49289;51.670;5.624;2023-05-16T00:22:51;8.20;;;1.80;;
63193;SDS011;49289;51.670;5.624;2023-05-16T00:24:39;9.50;;;2.20;;
63193;SDS011;49289;51.670;5.624;2023-05-16T00:26:27;8.00;;;1.90;;
63193;SDS011;49289;51.670;5.624;2023-05-16T00:28:14;11.10;;;2.70;;
63193;SDS011;49289;51.670;5.624;2023-05-16T00:30:02;9.60;;;2.60;;
63193;SDS011;49289;51.670;5.624;2023-05-16T00:31:50;10.20;;;2.40;;
63193;SDS011;49289;51.670;5.624;2023-05-16T00:33:37;11.30;;;2.50;;
63193;SDS011;49289;51.670;5.624;2023-05-16T00:35:24;10.00;;;2.40;;
63193;SDS011;49289;51.670;5.624;2023-05-16T00:37:11;5.10;;;1.90;;
63193;SDS011;49289;51.670;5.624;2023-05-16T00:38:58;12.60;;;2.40;;
63193;SDS011;49289;51.670;5.624;2023-05-16T00:40:45;9.20;;;2.20;;
63193;SDS011;49289;51.670;5.624;2023-05-16T00:42:32;13.80;;;2.30;;
63193;SDS011;49289;51.670;5.624;2023-05-16T00:44:20;9.60;;;2.40;;
63193;SDS011;49289;51.670;5.624;2023-05-16T00:46:07;5.90;;;2.10;;
63193;SDS011;49289;51.670;5.624;2023-05-16T00:47:55;13.80;;;2.70;;
63193;SDS011;49289;51.670;5.624;2023-05-16T00:49:43;12.80;;;2.70;;
63193;SDS011;49289;51.670;5.624;2023-05-16T00:51:30;10.40;;;2.40;;
63193;SDS011;49289;51.670;5.624;2023-05-16T00:53:17;9.70;;;2.20;;
63193;SDS011;49289;51.670;5.624;2023-05-16T00:55:04;6.50;;;1.80;;
63193;SDS011;49289;51.670;5.624;2023-05-16T00:56:52;10.30;;;2.20;;
63193;SDS011;49289;51.670;5.624;2023-05-16T00:58:40;11.30;;;2.60;;
63193;SDS011;49289;51.670;5.624;2023-05-16T01:00:28;11.70;;;2.40;;
63193;SDS011;49289;51.670;5.624;2023-05-16T01:02:16;10.30;;;2.60;;
63193;SDS011;49289;51.670;5.624;2023-05-16T01:04:04;10.10;;;2.20;;
63193;SDS011;49289;51.670;5.624;2023-05-16T01:05:52;9.40;;;2.10;;
63193;SDS011;49289;51.670;5.624;2023-05-16T01:07:40;12.50;;;2.20;;
63193;SDS011;49289;51.670;5.624;2023-05-16T01:09:28;10.00;;;2.30;;
63193;SDS011;49289;51.670;5.624;2023-05-16T01:11:17;10.30;;;2.20;;
63193;SDS011;49289;51.670;5.624;2023-05-16T01:13:04;9.00;;;2.20;;
63193;SDS011;49289;51.670;5.624;2023-05-16T01:14:54;10.10;;;2.20;;
63193;SDS011;49289;51.670;5.624;2023-05-16T01:16:43;8.60;;;2.00;;
63193;SDS011;49289;51.670;5.624;2023-05-16T01:18:30;9.60;;;2.10;;
63193;SDS011;49289;51.670;5.624;2023-05-16T01:20:19;11.30;;;1.80;;
63193;SDS011;49289;51.670;5.624;2023-05-16T01:22:09;10.70;;;2.10;;
63193;SDS011;49289;51.670;5.624;2023-05-16T01:23:58;10.70;;;2.40;;
63193;SDS011;49289;51.670;5.624;2023-05-16T01:25:44;8.30;;;1.80;;
63193;SDS011;49289;51.670;5.624;2023-05-16T01:27:32;10.60;;;2.50;;
63193;SDS011;49289;51.670;5.624;2023-05-16T01:29:20;13.00;;;2.00;;
63193;SDS011;49289;51.670;5.624;2023-05-16T01:31:08;8.00;;;1.90;;
63193;SDS011;49289;51.670;5.624;2023-05-16T01:32:56;11.50;;;2.00;;
63193;SDS011;49289;51.670;5.624;2023-05-16T01:34:43;10.80;;;2.30;;
63193;SDS011;49289;51.670;5.624;2023-05-16T01:36:32;11.20;;;2.10;;
63193;SDS011;49289;51.670;5.624;2023-05-16T01:38:22;9.80;;;2.50;;
63193;SDS011;49289;51.670;5.624;2023-05-16T01:40:08;6.80;;;1.90;;
63193;SDS011;49289;51.670;5.624;2023-05-16T01:41:58;11.70;;;2.20;;
63193;SDS011;49289;51.670;5.624;2023-05-16T01:43:47;9.00;;;2.10;;
63193;SDS011;49289;51.670;5.624;2023-05-16T01:45:34;6.80;;;1.60;;
63193;SDS011;49289;51.670;5.624;2023-05-16T01:47:22;9.40;;;1.90;;
63193;SDS011;49289;51.670;5.624;2023-05-16T01:49:11;6.80;;;1.60;;
63193;SDS011;49289;51.670;5.624;2023-05-16T01:50:59;8.00;;;1.80;;
63193;SDS011;49289;51.670;5.624;2023-05-16T01:52:48;9.60;;;2.20;;
63193;SDS011;49289;51.670;5.624;2023-05-16T01:54:36;9.60;;;2.10;;
63193;SDS011;49289;51.670;5.624;2023-05-16T01:56:23;10.70;;;1.90;;
63193;SDS011;49289;51.670;5.624;2023-05-16T01:58:11;7.50;;;1.80;;
63193;SDS011;49289;51.670;5.624;2023-05-16T01:59:58;9.70;;;2.00;;
63193;SDS011;49289;51.670;5.624;2023-05-16T02:01:46;8.80;;;1.70;;
63193;SDS011;49289;51.670;5.624;2023-05-16T02:03:34;9.80;;;1.80;;
63193;SDS011;49289;51.670;5.624;2023-05-16T02:05:22;10.70;;;2.10;;
63193;SDS011;49289;51.670;5.624;2023-05-16T02:07:10;9.90;;;1.90;;
63193;SDS011;49289;51.670;5.624;2023-05-16T02:08:57;13.10;;;2.30;;
63193;SDS011;49289;51.670;5.624;2023-05-16T02:10:44;13.10;;;3.40;;
63193;SDS011;49289;51.670;5.624;2023-05-16T02:12:31;11.20;;;2.40;;
63193;SDS011;49289;51.670;5.624;2023-05-16T02:14:18;9.80;;;2.10;;
63193;SDS011;49289;51.670;5.624;2023-05-16T02:16:05;7.90;;;1.80;;
63193;SDS011;49289;51.670;5.624;2023-05-16T02:17:52;9.80;;;2.40;;
63193;SDS011;49289;51.670;5.624;2023-05-16T02:19:39;7.10;;;1.90;;
63193;SDS011;49289;51.670;5.624;2023-05-16T02:21:26;6.80;;;2.10;;
63193;SDS011;49289;51.670;5.624;2023-05-16T02:23:13;8.10;;;2.10;;
63193;SDS011;49289;51.670;5.624;2023-05-16T02:25:01;6.90;;;1.90;;
63193;SDS011;49289;51.670;5.624;2023-05-16T02:26:48;10.70;;;2.50;;
63193;SDS011;49289;51.670;5.624;2023-05-16T02:28:35;8.80;;;2.00;;
63193;SDS011;49289;51.670;5.624;2023-05-16T02:30:22;10.30;;;1.80;;
63193;SDS011;49289;51.670;5.624;2023-05-16T02:32:09;11.10;;;1.80;;
63193;SDS011;49289;51.670;5.624;2023-05-16T02:33:58;5.60;;;1.80;;
63193;SDS011;49289;51.670;5.624;2023-05-16T02:35:45;10.90;;;2.00;;
63193;SDS011;49289;51.670;5.624;2023-05-16T02:37:33;10.60;;;1.90;;
63193;SDS011;49289;51.670;5.624;2023-05-16T02:39:21;9.70;;;1.80;;
63193;SDS011;49289;51.670;5.624;2023-05-16T02:41:08;10.10;;;2.30;;
63193;SDS011;49289;51.670;5.624;2023-05-16T02:42:56;6.90;;;1.90;;
63193;SDS011;49289;51.670;5.624;2023-05-16T02:44:43;6.60;;;1.90;;
63193;SDS011;49289;51.670;5.624;2023-05-16T02:46:32;8.00;;;1.90;;
63193;SDS011;49289;51.670;5.624;2023-05-16T02:48:17;12.70;;;2.20;;
63193;SDS011;49289;51.670;5.624;2023-05-16T02:50:04;9.90;;;1.90;;
63193;SDS011;49289;51.670;5.624;2023-05-16T02:51:53;8.30;;;2.20;;
63193;SDS011;49289;51.670;5.624;2023-05-16T02:53:41;9.70;;;2.10;;
63193;SDS011;49289;51.670;5.624;2023-05-16T02:55:28;7.70;;;1.80;;
63193;SDS011;49289;51.670;5.624;2023-05-16T02:57:16;13.20;;;2.60;;
63193;SDS011;49289;51.670;5.624;2023-05-16T02:59:05;12.40;;;2.10;;
63193;SDS011;49289;51.670;5.624;2023-05-16T03:00:53;9.70;;;2.00;;
63193;SDS011;49289;51.670;5.624;2023-05-16T03:02:40;9.30;;;1.90;;
63193;SDS011;49289;51.670;5.624;2023-05-16T03:04:27;11.00;;;2.10;;
63193;SDS011;49289;51.670;5.624;2023-05-16T03:06:14;11.20;;;2.20;;
63193;SDS011;49289;51.670;5.624;2023-05-16T03:08:01;6.70;;;1.70;;
63193;SDS011;49289;51.670;5.624;2023-05-16T03:09:48;9.60;;;2.40;;
63193;SDS011;49289;51.670;5.624;2023-05-16T03:11:35;8.50;;;2.30;;
63193;SDS011;49289;51.670;5.624;2023-05-16T03:13:22;11.40;;;2.50;;
63193;SDS011;49289;51.670;5.624;2023-05-16T03:15:10;8.90;;;1.60;;
63193;SDS011;49289;51.670;5.624;2023-05-16T03:16:57;9.80;;;2.00;;
63193;SDS011;49289;51.670;5.624;2023-05-16T03:18:44;8.10;;;2.00;;
63193;SDS011;49289;51.670;5.624;2023-05-16T03:20:46;11.20;;;2.50;;
63193;SDS011;49289;51.670;5.624;2023-05-16T03:22:33;6.60;;;1.70;;
63193;SDS011;49289;51.670;5.624;2023-05-16T03:24:21;9.60;;;1.90;;
63193;SDS011;49289;51.670;5.624;2023-05-16T03:26:09;12.00;;;2.40;;
63193;SDS011;49289;51.670;5.624;2023-05-16T03:27:57;8.90;;;1.90;;
63193;SDS011;49289;51.670;5.624;2023-05-16T03:29:44;8.20;;;1.60;;
63193;SDS011;49289;51.670;5.624;2023-05-16T03:31:31;8.90;;;1.90;;
63193;SDS011;49289;51.670;5.624;2023-05-16T03:33:18;11.70;;;2.20;;
63193;SDS011;49289;51.670;5.624;2023-05-16T03:35:05;12.10;;;2.40;;
63193;SDS011;49289;51.670;5.624;2023-05-16T03:36:53;7.10;;;2.00;;
63193;SDS011;49289;51.670;5.624;2023-05-16T03:38:41;10.00;;;1.90;;
63193;SDS011;49289;51.670;5.624;2023-05-16T03:40:29;10.20;;;2.10;;
63193;SDS011;49289;51.670;5.624;2023-05-16T03:42:17;7.40;;;2.10;;
63193;SDS011;49289;51.670;5.624;2023-05-16T03:44:05;8.30;;;2.00;;
63193;SDS011;49289;51.670;5.624;2023-05-16T03:45:52;12.80;;;2.10;;
63193;SDS011;49289;51.670;5.624;2023-05-16T03:47:41;8.80;;;1.70;;
63193;SDS011;49289;51.670;5.624;2023-05-16T03:49:28;6.90;;;1.90;;
63193;SDS011;49289;51.670;5.624;2023-05-16T03:51:15;7.10;;;2.20;;
63193;SDS011;49289;51.670;5.624;2023-05-16T03:53:02;6.10;;;1.60;;
63193;SDS011;49289;51.670;5.624;2023-05-16T03:54:50;6.90;;;1.40;;
63193;SDS011;49289;51.670;5.624;2023-05-16T03:56:38;8.50;;;2.40;;
63193;SDS011;49289;51.670;5.624;2023-05-16T03:58:25;10.10;;;1.90;;
63193;SDS011;49289;51.670;5.624;2023-05-16T04:00:14;11.00;;;1.90;;
63193;SDS011;49289;51.670;5.624;2023-05-16T04:02:02;8.50;;;1.90;;
63193;SDS011;49289;51.670;5.624;2023-05-16T04:03:49;13.90;;;2.10;;
63193;SDS011;49289;51.670;5.624;2023-05-16T04:05:36;11.30;;;2.10;;
63193;SDS011;49289;51.670;5.624;2023-05-16T04:07:23;8.80;;;2.10;;
63193;SDS011;49289;51.670;5.624;2023-05-16T04:09:10;12.20;;;2.00;;
63193;SDS011;49289;51.670;5.624;2023-05-16T04:10:57;10.40;;;2.00;;
63193;SDS011;49289;51.670;5.624;2023-05-16T04:12:44;9.50;;;2.30;;
63193;SDS011;49289;51.670;5.624;2023-05-16T04:16:20;7.10;;;1.70;;
63193;SDS011;49289;51.670;5.624;2023-05-16T04:18:08;8.20;;;1.80;;
63193;SDS011;49289;51.670;5.624;2023-05-16T04:19:56;11.00;;;2.10;;
63193;SDS011;49289;51.670;5.624;2023-05-16T04:21:44;7.90;;;2.00;;
63193;SDS011;49289;51.670;5.624;2023-05-16T04:23:31;6.60;;;1.70;;
63193;SDS011;49289;51.670;5.624;2023-05-16T04:25:20;6.60;;;2.20;;
63193;SDS011;49289;51.670;5.624;2023-05-16T04:27:08;7.20;;;1.80;;
63193;SDS011;49289;51.670;5.624;2023-05-16T04:28:56;10.50;;;2.00;;
63193;SDS011;49289;51.670;5.624;2023-05-16T04:30:43;10.40;;;2.20;;
63193;SDS011;49289;51.670;5.624;2023-05-16T04:32:31;9.50;;;2.10;;
63193;SDS011;49289;51.670;5.624;2023-05-16T04:34:19;8.00;;;1.80;;
63193;SDS011;49289;51.670;5.624;2023-05-16T04:36:08;8.20;;;1.80;;
63193;SDS011;49289;51.670;5.624;2023-05-16T04:37:55;11.20;;;2.20;;
63193;SDS011;49289;51.670;5.624;2023-05-16T04:39:43;12.50;;;2.20;;
63193;SDS011;49289;51.670;5.624;2023-05-16T04:41:30;7.20;;;1.80;;
63193;SDS011;49289;51.670;5.624;2023-05-16T04:43:18;8.20;;;2.10;;
63193;SDS011;49289;51.670;5.624;2023-05-16T04:45:06;8.90;;;1.80;;
63193;SDS011;49289;51.670;5.624;2023-05-16T04:46:54;6.60;;;1.80;;
63193;SDS011;49289;51.670;5.624;2023-05-16T04:48:41;7.70;;;2.30;;
63193;SDS011;49289;51.670;5.624;2023-05-16T04:50:28;8.20;;;2.10;;
63193;SDS011;49289;51.670;5.624;2023-05-16T04:52:15;8.70;;;2.00;;
63193;SDS011;49289;51.670;5.624;2023-05-16T04:54:02;10.40;;;2.10;;
63193;SDS011;49289;51.670;5.624;2023-05-16T04:55:49;10.90;;;2.10;;
63193;SDS011;49289;51.670;5.624;2023-05-16T04:57:37;8.80;;;1.80;;
63193;SDS011;49289;51.670;5.624;2023-05-16T04:59:25;11.70;;;2.10;;
63193;SDS011;49289;51.670;5.624;2023-05-16T05:01:13;9.60;;;2.10;;
63193;SDS011;49289;51.670;5.624;2023-05-16T05:03:00;7.10;;;2.30;;
63193;SDS011;49289;51.670;5.624;2023-05-16T05:04:48;7.30;;;1.60;;
63193;SDS011;49289;51.670;5.624;2023-05-16T05:06:37;8.90;;;2.00;;
63193;SDS011;49289;51.670;5.624;2023-05-16T05:08:24;9.30;;;1.90;;
63193;SDS011;49289;51.670;5.624;2023-05-16T05:10:13;7.90;;;1.60;;
63193;SDS011;49289;51.670;5.624;2023-05-16T05:12:00;6.20;;;1.70;;
63193;SDS011;49289;51.670;5.624;2023-05-16T05:13:48;9.90;;;2.00;;
63193;SDS011;49289;51.670;5.624;2023-05-16T05:15:35;15.70;;;2.40;;
63193;SDS011;49289;51.670;5.624;2023-05-16T05:17:22;6.50;;;1.90;;
63193;SDS011;49289;51.670;5.624;2023-05-16T05:19:09;11.50;;;2.60;;
63193;SDS011;49289;51.670;5.624;2023-05-16T05:20:56;9.40;;;2.40;;
63193;SDS011;49289;51.670;5.624;2023-05-16T05:22:43;12.40;;;2.20;;
63193;SDS011;49289;51.670;5.624;2023-05-16T05:24:30;10.10;;;2.20;;
63193;SDS011;49289;51.670;5.624;2023-05-16T05:26:17;11.00;;;2.20;;
63193;SDS011;49289;51.670;5.624;2023-05-16T05:28:04;11.60;;;2.20;;
63193;SDS011;49289;51.670;5.624;2023-05-16T05:29:51;10.40;;;2.10;;
63193;SDS011;49289;51.670;5.624;2023-05-16T05:31:38;11.20;;;2.30;;
63193;SDS011;49289;51.670;5.624;2023-05-16T05:33:25;9.10;;;2.00;;
63193;SDS011;49289;51.670;5.624;2023-05-16T05:35:12;11.50;;;2.60;;
63193;SDS011;49289;51.670;5.624;2023-05-16T05:36:59;7.70;;;1.90;;
63193;SDS011;49289;51.670;5.624;2023-05-16T05:38:46;8.90;;;1.80;;
63193;SDS011;49289;51.670;5.624;2023-05-16T05:40:33;7.90;;;1.90;;
63193;SDS011;49289;51.670;5.624;2023-05-16T05:42:20;8.10;;;2.40;;
63193;SDS011;49289;51.670;5.624;2023-05-16T05:44:07;11.30;;;2.30;;
63193;SDS011;49289;51.670;5.624;2023-05-16T05:45:54;6.90;;;1.70;;
63193;SDS011;49289;51.670;5.624;2023-05-16T05:47:41;9.30;;;1.90;;
63193;SDS011;49289;51.670;5.624;2023-05-16T05:49:28;8.10;;;2.10;;
63193;SDS011;49289;51.670;5.624;2023-05-16T05:51:15;9.50;;;2.30;;
63193;SDS011;49289;51.670;5.624;2023-05-16T05:53:03;8.80;;;1.80;;
63193;SDS011;49289;51.670;5.624;2023-05-16T05:54:51;6.80;;;2.00;;
63193;SDS011;49289;51.670;5.624;2023-05-16T05:56:38;9.70;;;1.80;;
63193;SDS011;49289;51.670;5.624;2023-05-16T05:58:26;6.90;;;1.50;;
63193;SDS011;49289;51.670;5.624;2023-05-16T06:00:15;9.30;;;2.00;;
63193;SDS011;49289;51.670;5.624;2023-05-16T06:02:03;6.40;;;1.70;;
63193;SDS011;49289;51.670;5.624;2023-05-16T06:03:51;5.60;;;1.60;;
63193;SDS011;49289;51.670;5.624;2023-05-16T06:05:39;7.50;;;1.70;;
63193;SDS011;49289;51.670;5.624;2023-05-16T06:07:27;7.50;;;1.90;;
63193;SDS011;49289;51.670;5.624;2023-05-16T06:09:15;7.70;;;2.10;;
63193;SDS011;49289;51.670;5.624;2023-05-16T06:11:02;9.00;;;1.90;;
63193;SDS011;49289;51.670;5.624;2023-05-16T06:12:49;8.00;;;1.80;;
63193;SDS011;49289;51.670;5.624;2023-05-16T06:14:38;7.00;;;1.60;;
63193;SDS011;49289;51.670;5.624;2023-05-16T06:16:25;9.50;;;2.20;;
63193;SDS011;49289;51.670;5.624;2023-05-16T06:18:12;5.10;;;1.70;;
63193;SDS011;49289;51.670;5.624;2023-05-16T06:20:01;12.70;;;2.10;;
63193;SDS011;49289;51.670;5.624;2023-05-16T06:21:49;5.10;;;1.50;;
63193;SDS011;49289;51.670;5.624;2023-05-16T06:23:37;8.10;;;1.90;;
63193;SDS011;49289;51.670;5.624;2023-05-16T06:25:25;6.90;;;1.60;;
63193;SDS011;49289;51.670;5.624;2023-05-16T06:27:13;8.20;;;2.10;;
63193;SDS011;49289;51.670;5.624;2023-05-16T06:29:01;10.50;;;2.30;;
63193;SDS011;49289;51.670;5.624;2023-05-16T06:30:49;9.50;;;2.00;;
63193;SDS011;49289;51.670;5.624;2023-05-16T06:32:37;8.10;;;1.70;;
63193;SDS011;49289;51.670;5.624;2023-05-16T06:34:24;6.00;;;2.00;;
63193;SDS011;49289;51.670;5.624;2023-05-16T06:36:11;8.80;;;1.50;;
63193;SDS011;49289;51.670;5.624;2023-05-16T06:37:58;6.50;;;1.70;;
63193;SDS011;49289;51.670;5.624;2023-05-16T06:39:45;7.50;;;1.80;;
63193;SDS011;49289;51.670;5.624;2023-05-16T06:41:32;8.30;;;1.70;;
63193;SDS011;49289;51.670;5.624;2023-05-16T06:43:19;7.60;;;1.90;;
63193;SDS011;49289;51.670;5.624;2023-05-16T06:45:06;4.80;;;1.60;;
63193;SDS011;49289;51.670;5.624;2023-05-16T06:46:55;9.10;;;1.80;;
63193;SDS011;49289;51.670;5.624;2023-05-16T06:48:43;14.60;;;1.90;;
63193;SDS011;49289;51.670;5.624;2023-05-16T06:50:30;10.40;;;2.00;;
63193;SDS011;49289;51.670;5.624;2023-05-16T06:52:17;9.30;;;1.80;;
63193;SDS011;49289;51.670;5.624;2023-05-16T06:54:04;9.90;;;1.60;;
63193;SDS011;49289;51.670;5.624;2023-05-16T06:55:51;7.50;;;1.60;;
63193;SDS011;49289;51.670;5.624;2023-05-16T06:57:38;9.10;;;1.70;;
63193;SDS011;49289;51.670;5.624;2023-05-16T06:59:25;9.80;;;1.60;;
63193;SDS011;49289;51.670;5.624;2023-05-16T07:01:12;6.90;;;1.90;;
63193;SDS011;49289;51.670;5.624;2023-05-16T07:02:59;6.70;;;1.90;;
63193;SDS011;49289;51.670;5.624;2023-05-16T07:04:47;4.40;;;1.40;;
63193;SDS011;49289;51.670;5.624;2023-05-16T07:06:35;6.00;;;1.30;;
63193;SDS011;49289;51.670;5.624;2023-05-16T07:08:23;7.30;;;1.70;;
63193;SDS011;49289;51.670;5.624;2023-05-16T07:10:11;9.10;;;1.50;;
63193;SDS011;49289;51.670;5.624;2023-05-16T07:11:58;6.70;;;1.40;;
63193;SDS011;49289;51.670;5.624;2023-05-16T07:13:45;6.40;;;1.60;;
63193;SDS011;49289;51.670;5.624;2023-05-16T07:15:32;6.10;;;1.40;;
63193;SDS011;49289;51.670;5.624;2023-05-16T07:17:19;5.50;;;1.60;;
63193;SDS011;49289;51.670;5.624;2023-05-16T07:19:06;5.10;;;1.40;;
63193;SDS011;49289;51.670;5.624;2023-05-16T07:20:55;4.20;;;1.30;;
63193;SDS011;49289;51.670;5.624;2023-05-16T07:22:43;6.40;;;1.40;;
63193;SDS011;49289;51.670;5.624;2023-05-16T07:24:31;5.50;;;1.40;;
63193;SDS011;49289;51.670;5.624;2023-05-16T07:26:18;2.70;;;1.20;;
63193;SDS011;49289;51.670;5.624;2023-05-16T07:28:05;9.00;;;1.20;;
63193;SDS011;49289;51.670;5.624;2023-05-16T07:29:52;3.60;;;1.10;;
63193;SDS011;49289;51.670;5.624;2023-05-16T07:31:40;6.60;;;1.20;;
63193;SDS011;49289;51.670;5.624;2023-05-16T07:33:28;6.10;;;1.30;;
63193;SDS011;49289;51.670;5.624;2023-05-16T07:35:16;5.00;;;1.30;;
63193;SDS011;49289;51.670;5.624;2023-05-16T07:37:04;3.60;;;1.20;;
63193;SDS011;49289;51.670;5.624;2023-05-16T07:38:51;5.00;;;1.40;;
63193;SDS011;49289;51.670;5.624;2023-05-16T07:40:39;5.40;;;1.50;;
63193;SDS011;49289;51.670;5.624;2023-05-16T07:42:27;5.80;;;1.50;;
63193;SDS011;49289;51.670;5.624;2023-05-16T07:44:15;4.20;;;1.10;;
63193;SDS011;49289;51.670;5.624;2023-05-16T07:46:02;6.10;;;1.30;;
63193;SDS011;49289;51.670;5.624;2023-05-16T07:47:49;4.40;;;1.10;;
63193;SDS011;49289;51.670;5.624;2023-05-16T07:49:36;3.70;;;1.00;;
63193;SDS011;49289;51.670;5.624;2023-05-16T07:51:23;5.50;;;1.30;;
63193;SDS011;49289;51.670;5.624;2023-05-16T07:53:11;6.70;;;1.40;;
63193;SDS011;49289;51.670;5.624;2023-05-16T07:54:58;2.40;;;0.90;;
63193;SDS011;49289;51.670;5.624;2023-05-16T07:56:45;3.30;;;1.30;;
63193;SDS011;49289;51.670;5.624;2023-05-16T07:58:32;3.80;;;1.20;;
63193;SDS011;49289;51.670;5.624;2023-05-16T08:00:20;3.20;;;0.90;;
63193;SDS011;49289;51.670;5.624;2023-05-16T08:02:07;2.80;;;1.00;;
63193;SDS011;49289;51.670;5.624;2023-05-16T08:03:54;5.00;;;1.30;;
63193;SDS011;49289;51.670;5.624;2023-05-16T08:05:41;3.50;;;1.00;;
63193;SDS011;49289;51.670;5.624;2023-05-16T08:07:28;5.90;;;1.30;;
63193;SDS011;49289;51.670;5.624;2023-05-16T08:09:15;5.10;;;1.40;;
63193;SDS011;49289;51.670;5.624;2023-05-16T08:11:03;5.20;;;1.40;;
63193;SDS011;49289;51.670;5.624;2023-05-16T08:12:50;4.40;;;1.10;;
63193;SDS011;49289;51.670;5.624;2023-05-16T08:14:37;5.20;;;1.30;;
63193;SDS011;49289;51.670;5.624;2023-05-16T08:16:24;4.10;;;1.20;;
63193;SDS011;49289;51.670;5.624;2023-05-16T08:18:11;4.30;;;1.30;;
63193;SDS011;49289;51.670;5.624;2023-05-16T08:19:59;5.00;;;1.30;;
63193;SDS011;49289;51.670;5.624;2023-05-16T08:21:46;5.00;;;1.40;;
63193;SDS011;49289;51.670;5.624;2023-05-16T08:23:34;5.30;;;1.50;;
63193;SDS011;49289;51.670;5.624;2023-05-16T08:25:22;4.70;;;1.40;;
63193;SDS011;49289;51.670;5.624;2023-05-16T08:27:10;6.60;;;1.20;;
63193;SDS011;49289;51.670;5.624;2023-05-16T08:28:58;7.30;;;1.30;;
63193;SDS011;49289;51.670;5.624;2023-05-16T08:30:46;4.70;;;1.30;;
63193;SDS011;49289;51.670;5.624;2023-05-16T08:32:34;5.50;;;1.30;;
63193;SDS011;49289;51.670;5.624;2023-05-16T08:34:22;3.10;;;1.20;;
63193;SDS011;49289;51.670;5.624;2023-05-16T08:36:11;5.80;;;1.30;;
63193;SDS011;49289;51.670;5.624;2023-05-16T08:37:59;3.30;;;1.00;;
63193;SDS011;49289;51.670;5.624;2023-05-16T08:39:47;7.50;;;1.20;;
63193;SDS011;49289;51.670;5.624;2023-05-16T08:41:35;4.30;;;1.00;;
63193;SDS011;49289;51.670;5.624;2023-05-16T08:43:23;3.80;;;1.00;;
63193;SDS011;49289;51.670;5.624;2023-05-16T08:45:11;3.70;;;1.10;;
63193;SDS011;49289;51.670;5.624;2023-05-16T08:47:01;3.20;;;1.00;;
63193;SDS011;49289;51.670;5.624;2023-05-16T08:48:47;4.80;;;1.30;;
63193;SDS011;49289;51.670;5.624;2023-05-16T08:50:35;2.20;;;1.10;;
63193;SDS011;49289;51.670;5.624;2023-05-16T08:52:25;5.60;;;1.40;;
63193;SDS011;49289;51.670;5.624;2023-05-16T08:54:11;6.00;;;1.20;;
63193;SDS011;49289;51.670;5.624;2023-05-16T08:55:59;3.70;;;1.30;;
63193;SDS011;49289;51.670;5.624;2023-05-16T08:57:47;8.00;;;1.50;;
63193;SDS011;49289;51.670;5.624;2023-05-16T08:59:35;8.10;;;1.90;;
63193;SDS011;49289;51.670;5.624;2023-05-16T09:01:23;3.70;;;1.00;;
63193;SDS011;49289;51.670;5.624;2023-05-16T09:03:10;2.90;;;1.10;;
63193;SDS011;49289;51.670;5.624;2023-05-16T09:04:59;3.10;;;1.10;;
63193;SDS011;49289;51.670;5.624;2023-05-16T09:06:47;2.80;;;0.90;;
63193;SDS011;49289;51.670;5.624;2023-05-16T09:08:35;4.50;;;1.10;;
63193;SDS011;49289;51.670;5.624;2023-05-16T09:10:22;5.30;;;1.50;;
63193;SDS011;49289;51.670;5.624;2023-05-16T09:12:09;4.10;;;1.10;;
63193;SDS011;49289;51.670;5.624;2023-05-16T09:13:56;3.70;;;1.10;;
63193;SDS011;49289;51.670;5.624;2023-05-16T09:15:43;6.00;;;1.10;;
63193;SDS011;49289;51.670;5.624;2023-05-16T09:17:30;3.30;;;1.00;;
63193;SDS011;49289;51.670;5.624;2023-05-16T09:19:20;4.70;;;1.20;;
63193;SDS011;49289;51.670;5.624;2023-05-16T09:21:08;3.10;;;1.10;;
63193;SDS011;49289;51.670;5.624;2023-05-16T09:22:56;3.30;;;1.10;;
63193;SDS011;49289;51.670;5.624;2023-05-16T09:24:43;2.90;;;1.10;;
63193;SDS011;49289;51.670;5.624;2023-05-16T09:26:30;3.80;;;1.10;;
63193;SDS011;49289;51.670;5.624;2023-05-16T09:28:18;4.30;;;0.90;;
63193;SDS011;49289;51.670;5.624;2023-05-16T09:30:07;2.70;;;1.10;;
63193;SDS011;49289;51.670;5.624;2023-05-16T09:31:58;4.10;;;1.10;;
63193;SDS011;49289;51.670;5.624;2023-05-16T09:33:49;2.90;;;1.10;;
63193;SDS011;49289;51.670;5.624;2023-05-16T09:35:36;5.30;;;1.20;;
63193;SDS011;49289;51.670;5.624;2023-05-16T09:37:23;3.70;;;1.00;;
63193;SDS011;49289;51.670;5.624;2023-05-16T09:39:10;4.90;;;1.30;;
63193;SDS011;49289;51.670;5.624;2023-05-16T09:40:57;3.50;;;1.00;;
63193;SDS011;49289;51.670;5.624;2023-05-16T09:42:44;3.70;;;1.10;;
63193;SDS011;49289;51.670;5.624;2023-05-16T09:44:31;3.10;;;1.00;;
63193;SDS011;49289;51.670;5.624;2023-05-16T09:46:18;4.10;;;1.10;;
63193;SDS011;49289;51.670;5.624;2023-05-16T09:48:07;5.80;;;1.40;;
63193;SDS011;49289;51.670;5.624;2023-05-16T09:49:56;3.30;;;1.10;;
63193;SDS011;49289;51.670;5.624;2023-05-16T09:51:43;3.40;;;1.10;;
63193;SDS011;49289;51.670;5.624;2023-05-16T09:53:30;4.30;;;1.10;;
63193;SDS011;49289;51.670;5.624;2023-05-16T09:55:17;4.50;;;1.30;;
63193;SDS011;49289;51.670;5.624;2023-05-16T09:57:04;2.20;;;1.00;;
63193;SDS011;49289;51.670;5.624;2023-05-16T09:58:51;1.90;;;0.90;;
63193;SDS011;49289;51.670;5.624;2023-05-16T10:00:38;3.20;;;1.10;;
63193;SDS011;49289;51.670;5.624;2023-05-16T10:02:25;3.60;;;1.10;;
63193;SDS011;49289;51.670;5.624;2023-05-16T10:04:12;7.40;;;1.30;;
63193;SDS011;49289;51.670;5.624;2023-05-16T10:05:59;2.80;;;1.10;;
63193;SDS011;49289;51.670;5.624;2023-05-16T10:07:46;2.80;;;0.70;;
63193;SDS011;49289;51.670;5.624;2023-05-16T10:09:33;4.90;;;1.10;;
63193;SDS011;49289;51.670;5.624;2023-05-16T10:11:20;2.90;;;0.90;;
63193;SDS011;49289;51.670;5.624;2023-05-16T10:13:07;2.80;;;1.00;;
63193;SDS011;49289;51.670;5.624;2023-05-16T10:14:54;5.30;;;1.40;;
63193;SDS011;49289;51.670;5.624;2023-05-16T10:16:41;3.60;;;1.10;;
63193;SDS011;49289;51.670;5.624;2023-05-16T10:18:28;2.80;;;1.20;;
63193;SDS011;49289;51.670;5.624;2023-05-16T10:20:16;6.60;;;1.00;;
63193;SDS011;49289;51.670;5.624;2023-05-16T10:22:03;3.90;;;1.20;;
63193;SDS011;49289;51.670;5.624;2023-05-16T10:23:51;2.50;;;1.20;;
63193;SDS011;49289;51.670;5.624;2023-05-16T10:25:39;6.10;;;1.10;;
63193;SDS011;49289;51.670;5.624;2023-05-16T10:27:26;2.40;;;1.10;;
63193;SDS011;49289;51.670;5.624;2023-05-16T10:29:14;3.70;;;1.10;;
63193;SDS011;49289;51.670;5.624;2023-05-16T10:31:01;3.50;;;1.00;;
63193;SDS011;49289;51.670;5.624;2023-05-16T10:32:48;3.20;;;0.90;;
63193;SDS011;49289;51.670;5.624;2023-05-16T10:34:35;1.90;;;1.10;;
63193;SDS011;49289;51.670;5.624;2023-05-16T10:36:22;1.30;;;0.70;;
63193;SDS011;49289;51.670;5.624;2023-05-16T10:38:11;2.50;;;1.00;;
63193;SDS011;49289;51.670;5.624;2023-05-16T10:39:58;3.50;;;0.90;;
63193;SDS011;49289;51.670;5.624;2023-05-16T10:41:47;3.30;;;1.20;;
63193;SDS011;49289;51.670;5.624;2023-05-16T10:43:34;2.80;;;0.90;;
63193;SDS011;49289;51.670;5.624;2023-05-16T10:45:22;3.10;;;0.90;;
63193;SDS011;49289;51.670;5.624;2023-05-16T10:47:09;4.10;;;1.00;;
63193;SDS011;49289;51.670;5.624;2023-05-16T10:48:56;3.50;;;0.90;;